createdAt,value
2022-11-20T00:01:34.001Z,81.10
2022-11-20T00:04:01.427Z,81.00
2022-11-20T00:06:29.557Z,81.00
2022-11-20T00:08:59.236Z,81.10
2022-11-20T00:11:28.175Z,81.30
2022-11-20T00:14:00.430Z,81.20
2022-11-20T00:16:29.550Z,81.20
2022-11-20T00:18:56.718Z,81.10
2022-11-20T00:21:29.316Z,81.10
2022-11-20T00:23:57.995Z,81.20
2022-11-20T00:26:27.542Z,81.10
2022-11-20T00:28:57.139Z,81.20
2022-11-20T00:31:25.192Z,81.10
2022-11-20T00:33:52.593Z,81.20
2022-11-20T00:36:22.161Z,81.10
2022-11-20T00:38:53.573Z,81.10
2022-11-20T00:41:21.637Z,81.10
2022-11-20T00:43:49.047Z,81.00
2022-11-20T00:46:21.193Z,81.00
2022-11-20T00:48:48.648Z,81.10
2022-11-20T00:51:18.550Z,81.20
2022-11-20T00:53:46.697Z,81.10
2022-11-20T00:56:16.431Z,81.00
2022-11-20T00:58:45.477Z,81.00
2022-11-20T01:01:21.007Z,81.30
2022-11-20T01:03:50.608Z,81.20
2022-11-20T01:06:18.885Z,81.00
2022-11-20T01:08:46.847Z,81.00
2022-11-20T01:11:26.274Z,81.10
2022-11-20T01:13:54.607Z,81.20
2022-11-20T01:16:37.229Z,81.10
2022-11-20T01:19:06.393Z,81.00
2022-11-20T01:21:36.268Z,80.90
2022-11-20T01:24:04.973Z,80.90
2022-11-20T01:26:35.114Z,81.10
2022-11-20T01:29:04.101Z,81.00
2022-11-20T01:31:33.926Z,81.20
2022-11-20T01:34:03.517Z,81.00
2022-11-20T01:36:32.036Z,81.10
2022-11-20T01:39:01.386Z,81.00
2022-11-20T01:41:49.982Z,80.80
2022-11-20T01:44:19.532Z,81.10
2022-11-20T01:47:06.201Z,80.90
2022-11-20T01:49:41.598Z,80.90
2022-11-20T01:52:25.820Z,81.20
2022-11-20T01:55:01.562Z,81.10
2022-11-20T01:57:32.774Z,81.10
2022-11-20T02:00:09.843Z,81.00
2022-11-20T02:02:38.768Z,81.20
2022-11-20T02:05:30.018Z,81.00
2022-11-20T02:07:58.969Z,81.00
2022-11-20T02:10:28.251Z,81.00
2022-11-20T02:13:14.670Z,81.00
2022-11-20T02:15:42.046Z,81.10
2022-11-20T02:18:10.454Z,81.60
2022-11-20T02:20:37.987Z,81.00
2022-11-20T02:23:22.469Z,81.30
2022-11-20T02:25:50.676Z,81.10
2022-11-20T02:28:19.117Z,81.10
2022-11-20T02:30:46.305Z,81.00
2022-11-20T02:33:14.193Z,81.10
2022-11-20T02:35:44.448Z,81.10
2022-11-20T02:38:12.079Z,81.00
2022-11-20T02:40:39.130Z,81.20
2022-11-20T02:43:06.408Z,81.10
2022-11-20T02:45:33.655Z,81.30
2022-11-20T02:48:00.879Z,81.30
2022-11-20T02:50:28.020Z,81.20
2022-11-20T02:52:55.155Z,81.50
2022-11-20T02:55:22.293Z,81.30
2022-11-20T02:57:49.404Z,81.20
2022-11-20T03:00:16.709Z,81.20
2022-11-20T03:02:43.854Z,81.30
2022-11-20T03:05:11.024Z,81.30
2022-11-20T03:07:38.232Z,81.30
2022-11-20T03:10:06.292Z,82.00
2022-11-20T03:12:33.490Z,81.60
2022-11-20T03:15:00.668Z,81.70
2022-11-20T03:17:27.930Z,81.60
2022-11-20T03:19:55.038Z,81.50
2022-11-20T03:22:22.149Z,81.40
2022-11-20T03:24:49.279Z,81.40
2022-11-20T03:27:16.328Z,81.40
2022-11-20T03:29:43.490Z,81.40
2022-11-20T03:32:10.637Z,81.40
2022-11-20T03:34:37.772Z,81.50
2022-11-20T03:37:04.840Z,81.50
2022-11-20T03:39:32.021Z,81.50
2022-11-20T03:41:59.166Z,81.50
2022-11-20T03:44:26.403Z,81.50
2022-11-20T03:46:53.506Z,81.70
2022-11-20T03:49:20.799Z,81.80
2022-11-20T03:51:48.583Z,81.70
2022-11-20T03:54:15.786Z,81.50
2022-11-20T03:56:42.852Z,81.60
2022-11-20T03:59:11.786Z,81.60
2022-11-20T04:01:39.183Z,81.70
2022-11-20T04:04:06.728Z,81.60
2022-11-20T04:06:39.064Z,81.60
2022-11-20T04:09:07.361Z,81.60
2022-11-20T04:11:37.042Z,81.70
2022-11-20T04:14:07.030Z,81.70
2022-11-20T04:16:37.071Z,81.70
2022-11-20T04:19:11.133Z,81.70
2022-11-20T04:21:38.323Z,81.80
2022-11-20T04:24:05.853Z,81.70
2022-11-20T04:26:33.103Z,81.70
2022-11-20T04:29:02.710Z,81.70
2022-11-20T04:31:35.696Z,81.70
2022-11-20T04:34:07.668Z,81.80
2022-11-20T04:36:35.430Z,81.70
2022-11-20T04:39:05.625Z,81.70
2022-11-20T04:41:35.950Z,81.70
2022-11-20T04:44:05.615Z,81.80
2022-11-20T04:46:38.165Z,81.80
2022-11-20T04:49:06.375Z,81.90
2022-11-20T04:51:33.971Z,81.90
2022-11-20T04:54:01.373Z,81.80
2022-11-20T04:56:28.578Z,81.80
2022-11-20T04:58:55.762Z,81.90
2022-11-20T05:01:25.336Z,82.00
2022-11-20T05:03:53.069Z,82.00
2022-11-20T05:06:22.118Z,81.90
2022-11-20T05:08:49.671Z,82.00
2022-11-20T05:11:19.957Z,82.00
2022-11-20T05:13:47.558Z,82.00
2022-11-20T05:16:20.145Z,82.10
2022-11-20T05:18:48.143Z,82.20
2022-11-20T05:21:15.623Z,82.30
2022-11-20T05:23:43.852Z,82.10
2022-11-20T05:26:18.778Z,82.20
2022-11-20T05:28:46.308Z,82.20
2022-11-20T05:31:16.130Z,82.10
2022-11-20T05:33:46.259Z,82.10
2022-11-20T05:36:15.013Z,82.20
2022-11-20T05:38:42.957Z,82.20
2022-11-20T05:41:15.350Z,82.30
2022-11-20T05:43:44.072Z,82.40
2022-11-20T05:46:14.011Z,82.30
2022-11-20T05:48:42.633Z,82.20
2022-11-20T05:51:15.473Z,82.20
2022-11-20T05:53:48.021Z,82.10
2022-11-20T05:56:18.953Z,82.10
2022-11-20T05:58:46.881Z,82.10
2022-11-20T06:01:26.287Z,82.20
2022-11-20T06:03:56.095Z,82.20
2022-11-20T06:06:23.993Z,82.20
2022-11-20T06:08:51.113Z,82.20
2022-11-20T06:11:18.749Z,82.20
2022-11-20T06:13:46.832Z,82.20
2022-11-20T06:16:16.560Z,82.20
2022-11-20T06:18:43.749Z,82.20
2022-11-20T06:21:13.641Z,82.30
2022-11-20T06:23:41.355Z,82.20
2022-11-20T06:26:17.952Z,82.10
2022-11-20T06:28:45.638Z,82.10
2022-11-20T06:31:15.606Z,82.20
2022-11-20T06:33:43.906Z,82.40
2022-11-20T06:36:13.185Z,82.20
2022-11-20T06:38:41.305Z,82.20
2022-11-20T06:41:14.326Z,82.20
2022-11-20T06:43:42.040Z,82.20
2022-11-20T06:46:11.571Z,82.20
2022-11-20T06:48:38.721Z,82.20
2022-11-20T06:51:07.697Z,82.20
2022-11-20T06:53:35.929Z,82.30
2022-11-20T06:56:03.613Z,82.10
2022-11-20T06:58:32.795Z,82.10
2022-11-20T07:01:05.473Z,82.10
2022-11-20T07:03:32.695Z,82.20
2022-11-20T07:06:02.194Z,82.10
2022-11-20T07:08:30.172Z,82.10
2022-11-20T07:11:05.015Z,82.10
2022-11-20T07:13:32.848Z,82.00
2022-11-20T07:16:05.266Z,82.00
2022-11-20T07:18:32.388Z,82.00
2022-11-20T07:21:05.150Z,82.00
2022-11-20T07:23:32.607Z,82.00
2022-11-20T07:26:03.946Z,82.00
2022-11-20T07:28:31.061Z,81.90
2022-11-20T07:30:58.300Z,81.80
2022-11-20T07:33:25.520Z,81.90
2022-11-20T07:35:52.688Z,81.80
2022-11-20T07:38:19.850Z,81.80
2022-11-20T07:40:46.994Z,81.80
2022-11-20T07:43:14.207Z,81.80
2022-11-20T07:45:41.368Z,81.80
2022-11-20T07:48:08.500Z,81.90
2022-11-20T07:50:35.682Z,81.80
2022-11-20T07:53:06.579Z,81.90
2022-11-20T07:55:34.091Z,81.90
2022-11-20T07:58:01.343Z,81.90
2022-11-20T08:00:28.970Z,81.90
2022-11-20T08:02:56.400Z,81.80
2022-11-20T08:05:24.074Z,81.80
2022-11-20T08:07:51.379Z,81.80
2022-11-20T08:10:18.734Z,81.80
2022-11-20T08:13:09.735Z,81.80
2022-11-20T08:15:38.171Z,81.80
2022-11-20T08:18:31.891Z,81.80
2022-11-20T08:21:03.435Z,81.80
2022-11-20T08:23:31.788Z,81.80
2022-11-20T08:25:59.724Z,82.00
2022-11-20T08:28:26.908Z,81.80
2022-11-20T08:31:00.203Z,81.90
2022-11-20T08:33:27.510Z,81.90
2022-11-20T08:35:54.688Z,81.90
2022-11-20T08:38:21.960Z,82.00
2022-11-20T08:41:10.851Z,82.00
2022-11-20T08:43:38.413Z,82.00
2022-11-20T08:46:05.653Z,82.00
2022-11-20T08:48:32.739Z,82.00
2022-11-20T08:51:00.660Z,82.00
2022-11-20T08:53:28.823Z,82.10
2022-11-20T08:55:57.445Z,82.10
2022-11-20T08:58:26.347Z,82.10
2022-11-20T09:00:54.206Z,82.20
2022-11-20T09:03:21.581Z,82.10
2022-11-20T09:05:48.712Z,82.10
2022-11-20T09:08:15.972Z,82.10
2022-11-20T09:10:43.057Z,82.20
2022-11-20T09:13:10.379Z,82.20
2022-11-20T09:15:37.649Z,82.10
2022-11-20T09:18:06.103Z,82.20
2022-11-20T09:20:33.194Z,82.20
2022-11-20T09:23:00.298Z,82.20
2022-11-20T09:25:27.638Z,82.20
2022-11-20T09:27:58.954Z,82.30
2022-11-20T09:30:27.107Z,82.30
2022-11-20T09:32:54.401Z,82.60
2022-11-20T09:35:21.700Z,82.20
2022-11-20T09:37:49.163Z,82.10
2022-11-20T09:40:30.509Z,82.10
2022-11-20T09:43:20.308Z,82.20
2022-11-20T09:45:50.179Z,82.20
2022-11-20T09:48:38.580Z,82.20
2022-11-20T09:51:36.622Z,82.10
2022-11-20T09:54:20.317Z,82.10
2022-11-20T09:57:04.429Z,82.00
2022-11-20T09:59:39.729Z,82.10
2022-11-20T10:02:23.501Z,82.20
2022-11-20T10:04:55.063Z,82.20
2022-11-20T10:07:33.119Z,82.10
2022-11-20T10:10:01.318Z,82.20
2022-11-20T10:13:08.853Z,82.10
2022-11-20T10:16:10.951Z,82.20
2022-11-20T10:18:56.552Z,82.10
2022-11-20T10:21:43.028Z,82.10
2022-11-20T10:24:35.511Z,82.20
2022-11-20T10:27:11.877Z,82.20
2022-11-20T10:29:43.107Z,82.20
2022-11-20T10:32:32.438Z,82.20
2022-11-20T10:35:37.004Z,82.20
2022-11-20T10:38:14.065Z,82.20
2022-11-20T10:40:52.277Z,82.30
2022-11-20T10:43:33.999Z,82.20
2022-11-20T10:46:14.013Z,82.10
2022-11-20T10:48:45.208Z,82.30
2022-11-20T10:51:21.323Z,82.20
2022-11-20T10:54:09.941Z,82.20
2022-11-20T10:56:48.325Z,82.20
2022-11-20T10:59:47.012Z,82.20
2022-11-20T11:02:22.322Z,82.20
2022-11-20T11:04:54.862Z,82.10
2022-11-20T11:07:28.054Z,82.10
2022-11-20T11:09:57.217Z,82.10
2022-11-20T11:12:27.011Z,82.20
2022-11-20T11:14:56.979Z,82.20
2022-11-20T11:17:33.054Z,82.30
2022-11-20T11:20:02.379Z,82.30
2022-11-20T11:22:32.038Z,82.30
2022-11-20T11:24:59.588Z,82.20
2022-11-20T11:27:26.830Z,82.20
2022-11-20T11:30:31.393Z,82.20
2022-11-20T11:33:07.466Z,82.20
2022-11-20T11:35:35.190Z,82.20
2022-11-20T11:38:15.490Z,82.20
2022-11-20T11:40:43.165Z,82.10
2022-11-20T11:43:43.181Z,82.00
2022-11-20T11:46:26.396Z,82.10
2022-11-20T11:49:20.531Z,82.10
2022-11-20T11:52:06.863Z,82.10
2022-11-20T11:55:11.925Z,82.20
2022-11-20T11:58:10.580Z,82.20
2022-11-20T12:00:42.429Z,82.30
2022-11-20T12:03:19.024Z,82.30
2022-11-20T12:05:55.154Z,82.40
2022-11-20T12:08:43.752Z,82.40
2022-11-20T12:11:41.999Z,82.40
2022-11-20T12:14:35.366Z,82.40
2022-11-20T12:17:03.827Z,82.30
2022-11-20T12:19:34.383Z,82.30
2022-11-20T12:22:05.740Z,82.10
2022-11-20T12:24:45.883Z,82.20
2022-11-20T12:27:50.366Z,82.40
2022-11-20T12:30:20.055Z,82.30
2022-11-20T12:33:06.107Z,82.30
2022-11-20T12:36:00.126Z,82.30
2022-11-20T12:38:39.061Z,82.30
2022-11-20T12:41:43.570Z,82.30
2022-11-20T12:44:57.242Z,82.20
2022-11-20T12:47:55.092Z,82.10
2022-11-20T12:51:13.366Z,82.00
2022-11-20T12:53:55.837Z,82.10
2022-11-20T12:56:51.217Z,82.10
2022-11-20T12:59:52.033Z,81.90
2022-11-20T13:02:34.148Z,81.90
2022-11-20T13:05:22.808Z,82.00
2022-11-20T13:07:52.708Z,82.00
2022-11-20T13:10:38.753Z,81.70
2022-11-20T13:13:27.168Z,81.80
2022-11-20T13:16:04.933Z,81.60
2022-11-20T13:18:39.697Z,81.60
2022-11-20T13:21:18.231Z,81.80
2022-11-20T13:23:45.495Z,81.80
2022-11-20T13:26:30.843Z,81.70
2022-11-20T13:29:21.469Z,81.70
2022-11-20T13:31:49.556Z,81.80
2022-11-20T13:34:28.860Z,81.70
2022-11-20T13:36:58.545Z,81.70
2022-11-20T13:39:31.631Z,81.80
2022-11-20T13:42:04.028Z,81.60
2022-11-20T13:44:48.788Z,81.70
2022-11-20T13:47:29.645Z,81.60
2022-11-20T13:50:00.456Z,81.60
2022-11-20T13:53:04.268Z,81.50
2022-11-20T13:55:48.489Z,81.50
2022-11-20T13:58:45.671Z,81.50
2022-11-20T14:01:20.565Z,81.40
2022-11-20T14:04:05.656Z,81.40
2022-11-20T14:06:41.835Z,81.10
2022-11-20T14:09:26.752Z,81.40
2022-11-20T14:11:53.975Z,81.20
2022-11-20T14:14:27.097Z,81.20
2022-11-20T14:17:05.905Z,81.20
2022-11-20T14:19:34.171Z,81.30
2022-11-20T14:22:21.800Z,81.10
2022-11-20T14:25:01.909Z,81.10
2022-11-20T14:27:29.543Z,81.00
2022-11-20T14:29:56.744Z,81.20
2022-11-20T14:32:29.536Z,81.00
2022-11-20T14:35:03.489Z,80.80
2022-11-20T14:37:37.397Z,81.00
2022-11-20T14:40:06.953Z,81.00
2022-11-20T14:42:35.177Z,81.10
2022-11-20T14:45:03.365Z,81.00
2022-11-20T14:47:32.251Z,80.70
2022-11-20T14:50:02.663Z,80.70
2022-11-20T14:52:33.003Z,80.50
2022-11-20T14:55:03.517Z,81.00
2022-11-20T14:57:33.233Z,80.80
2022-11-20T15:00:15.696Z,80.80
2022-11-20T15:02:44.516Z,81.00
2022-11-20T15:05:12.065Z,80.80
2022-11-20T15:07:46.558Z,81.00
2022-11-20T15:10:27.429Z,80.80
2022-11-20T15:12:58.018Z,80.80
2022-11-20T15:15:36.219Z,80.50
2022-11-20T15:18:04.785Z,80.30
2022-11-20T15:20:34.132Z,80.90
2022-11-20T15:23:01.397Z,80.60
2022-11-20T15:25:29.364Z,80.60
2022-11-20T15:27:57.881Z,80.80
2022-11-20T15:30:25.480Z,80.70
2022-11-20T15:32:52.864Z,80.40
2022-11-20T15:35:20.121Z,80.30
2022-11-20T15:37:47.266Z,80.50
2022-11-20T15:40:14.658Z,80.80
2022-11-20T15:43:01.729Z,80.50
2022-11-20T15:45:35.426Z,80.40
2022-11-20T15:48:03.522Z,80.60
2022-11-20T15:51:05.401Z,80.30
2022-11-20T15:53:32.522Z,80.10
2022-11-20T15:55:59.716Z,79.80
2022-11-20T15:58:27.747Z,79.70
2022-11-20T16:00:56.137Z,79.40
2022-11-20T16:03:24.038Z,79.50
2022-11-20T16:05:51.870Z,79.70
2022-11-20T16:08:19.075Z,77.60
2022-11-20T16:10:46.326Z,79.80
2022-11-20T16:13:34.329Z,79.20
2022-11-20T16:16:06.163Z,79.40
2022-11-20T16:18:36.892Z,79.20
2022-11-20T16:21:04.397Z,79.10
2022-11-20T16:23:34.508Z,79.00
2022-11-20T16:26:10.787Z,79.10
2022-11-20T16:28:37.881Z,79.10
2022-11-20T16:31:12.120Z,78.30
2022-11-20T16:33:39.312Z,78.40
2022-11-20T16:36:15.440Z,78.70
2022-11-20T16:38:45.937Z,78.30
2022-11-20T16:41:19.090Z,78.50
2022-11-20T16:43:50.574Z,78.30
2022-11-20T16:46:19.957Z,78.20
2022-11-20T16:48:57.305Z,78.00
2022-11-20T16:51:25.682Z,78.10
2022-11-20T16:53:53.649Z,78.00
2022-11-20T16:56:23.427Z,78.10
2022-11-20T16:58:51.532Z,77.80
2022-11-20T17:01:21.627Z,78.20
2022-11-20T17:03:56.313Z,78.00
2022-11-20T17:06:30.481Z,78.10
2022-11-20T17:08:58.702Z,78.10
2022-11-20T17:11:26.592Z,77.90
2022-11-20T17:13:55.785Z,77.80
2022-11-20T17:16:24.384Z,77.80
2022-11-20T17:18:51.543Z,77.80
2022-11-20T17:21:19.679Z,77.70
2022-11-20T17:23:47.515Z,77.30
2022-11-20T17:26:20.291Z,77.70
2022-11-20T17:28:53.570Z,77.50
2022-11-20T17:31:20.936Z,77.50
2022-11-20T17:33:48.542Z,77.20
2022-11-20T17:36:17.405Z,77.10
2022-11-20T17:38:45.372Z,77.10
2022-11-20T17:41:14.907Z,77.30
2022-11-20T17:43:43.219Z,77.00
2022-11-20T17:46:18.968Z,77.20
2022-11-20T17:48:47.446Z,76.90
2022-11-20T17:51:17.288Z,77.20
2022-11-20T17:53:47.583Z,76.80
2022-11-20T17:56:34.298Z,77.00
2022-11-20T17:59:08.341Z,76.70
2022-11-20T18:01:36.105Z,76.70
2022-11-20T18:04:03.808Z,76.80
2022-11-20T18:06:32.616Z,77.00
2022-11-20T18:09:03.763Z,77.00
2022-11-20T18:11:36.194Z,76.60
2022-11-20T18:14:24.335Z,76.70
2022-11-20T18:16:55.467Z,76.80
2022-11-20T18:19:32.141Z,76.60
2022-11-20T18:22:01.861Z,76.80
2022-11-20T18:24:29.463Z,76.50
2022-11-20T18:26:57.910Z,76.40
2022-11-20T18:29:25.955Z,76.30
2022-11-20T18:31:54.005Z,76.60
2022-11-20T18:34:21.482Z,76.10
2022-11-20T18:36:49.295Z,76.50
2022-11-20T18:39:16.825Z,76.20
2022-11-20T18:42:03.041Z,76.20
2022-11-20T18:44:50.138Z,76.20
2022-11-20T18:47:22.519Z,76.20
2022-11-20T18:49:54.951Z,76.50
2022-11-20T18:52:36.095Z,76.50
2022-11-20T18:55:05.160Z,76.50
2022-11-20T18:57:32.903Z,76.50
2022-11-20T19:00:05.034Z,76.40
2022-11-20T19:02:38.060Z,76.50
2022-11-20T19:05:09.222Z,76.40
2022-11-20T19:07:36.395Z,76.60
2022-11-20T19:10:04.556Z,76.60
2022-11-20T19:12:32.346Z,76.50
2022-11-20T19:14:59.529Z,76.60
2022-11-20T19:17:26.688Z,76.80
2022-11-20T19:19:55.121Z,76.80
2022-11-20T19:22:22.423Z,76.90
2022-11-20T19:24:49.905Z,77.00
2022-11-20T19:27:17.093Z,77.00
2022-11-20T19:29:48.343Z,77.00
2022-11-20T19:32:16.489Z,76.80
2022-11-20T19:34:43.938Z,77.00
2022-11-20T19:37:11.207Z,77.10
2022-11-20T19:39:38.466Z,77.10
2022-11-20T19:42:08.647Z,77.10
2022-11-20T19:44:36.018Z,76.80
2022-11-20T19:47:08.929Z,77.20
2022-11-20T19:49:41.923Z,77.20
2022-11-20T19:52:09.517Z,77.00
2022-11-20T19:54:36.743Z,77.20
2022-11-20T19:57:03.849Z,77.80
2022-11-20T19:59:31.349Z,77.20
2022-11-20T20:01:58.842Z,77.10
2022-11-20T20:04:26.076Z,76.90
2022-11-20T20:06:53.327Z,77.00
2022-11-20T20:09:22.679Z,77.10
2022-11-20T20:11:50.255Z,77.10
2022-11-20T20:14:18.459Z,77.10
2022-11-20T20:16:45.828Z,77.20
2022-11-20T20:19:14.813Z,77.30
2022-11-20T20:21:42.638Z,77.30
2022-11-20T20:24:11.480Z,77.50
2022-11-20T20:26:38.695Z,77.50
2022-11-20T20:29:05.872Z,77.40
2022-11-20T20:31:33.870Z,77.50
2022-11-20T20:34:03.472Z,77.50
2022-11-20T20:36:30.667Z,77.50
2022-11-20T20:39:05.174Z,77.70
2022-11-20T20:41:32.623Z,77.50
2022-11-20T20:44:18.540Z,77.70
2022-11-20T20:46:45.624Z,77.80
2022-11-20T20:49:13.115Z,77.80
2022-11-20T20:51:40.374Z,77.80
2022-11-20T20:54:07.455Z,77.80
2022-11-20T20:56:34.689Z,77.80
2022-11-20T20:59:03.157Z,77.80
2022-11-20T21:01:30.651Z,77.70
2022-11-20T21:03:58.253Z,77.90
2022-11-20T21:06:26.199Z,78.00
2022-11-20T21:08:53.466Z,77.80
2022-11-20T21:11:21.135Z,78.00
2022-11-20T21:13:49.058Z,77.90
2022-11-20T21:16:17.946Z,77.90
2022-11-20T21:18:45.299Z,78.00
2022-11-20T21:21:32.178Z,78.00
2022-11-20T21:23:59.623Z,78.10
2022-11-20T21:26:26.874Z,78.00
2022-11-20T21:28:54.202Z,78.00
2022-11-20T21:31:23.681Z,78.00
2022-11-20T21:33:52.510Z,78.20
2022-11-20T21:36:22.316Z,78.20
2022-11-20T21:38:51.893Z,78.00
2022-11-20T21:41:19.435Z,78.20
2022-11-20T21:43:51.541Z,78.00
2022-11-20T21:46:22.312Z,78.00
2022-11-20T21:48:49.886Z,78.00
2022-11-20T21:51:19.810Z,78.00
2022-11-20T21:53:48.297Z,78.00
2022-11-20T21:56:20.284Z,78.10
2022-11-20T21:58:48.735Z,78.40
2022-11-20T22:01:23.560Z,78.20
2022-11-20T22:03:52.914Z,78.20
2022-11-20T22:06:21.375Z,78.50
2022-11-20T22:08:49.177Z,78.50
2022-11-20T22:11:18.888Z,78.50
2022-11-20T22:14:04.862Z,78.30
2022-11-20T22:16:37.338Z,78.60
2022-11-20T22:19:05.390Z,78.40
2022-11-20T22:21:33.032Z,78.60
2022-11-20T22:24:00.276Z,78.70
2022-11-20T22:26:34.982Z,78.60
2022-11-20T22:29:04.630Z,78.30
2022-11-20T22:31:32.219Z,78.30
2022-11-20T22:34:01.654Z,78.30
2022-11-20T22:36:30.382Z,78.50
2022-11-20T22:38:58.228Z,78.40
2022-11-20T22:41:28.081Z,78.50
2022-11-20T22:43:56.857Z,78.30
2022-11-20T22:46:24.911Z,78.30
2022-11-20T22:48:58.967Z,78.30
2022-11-20T22:51:33.976Z,78.40
2022-11-20T22:54:03.576Z,78.50
2022-11-20T22:56:31.142Z,78.60
2022-11-20T22:58:58.333Z,78.30
2022-11-20T23:01:30.849Z,78.40
2022-11-20T23:04:00.872Z,78.20
2022-11-20T23:06:28.596Z,78.20
2022-11-20T23:08:56.221Z,78.20
2022-11-20T23:11:25.754Z,78.30
2022-11-20T23:14:00.712Z,78.10
2022-11-20T23:16:29.833Z,78.20
2022-11-20T23:18:59.580Z,78.10
2022-11-20T23:21:27.102Z,78.20
2022-11-20T23:23:56.645Z,78.10
2022-11-20T23:26:26.192Z,78.00
2022-11-20T23:28:54.916Z,78.10
2022-11-20T23:31:22.376Z,78.20
2022-11-20T23:33:49.805Z,78.20
2022-11-20T23:36:16.988Z,78.10
2022-11-20T23:38:44.155Z,78.00
2022-11-20T23:41:12.851Z,78.10
2022-11-20T23:43:40.412Z,78.10
2022-11-20T23:46:10.436Z,78.10
2022-11-20T23:48:39.883Z,78.10
2022-11-20T23:51:08.015Z,78.10
2022-11-20T23:53:35.152Z,78.20
2022-11-20T23:56:05.113Z,78.20
2022-11-20T23:58:35.108Z,78.20
